createdAt,value
2022-10-17T00:02:11.638Z,23.06
2022-10-17T00:04:37.990Z,23.03
2022-10-17T00:07:04.355Z,23.08
2022-10-17T00:09:30.718Z,22.97
2022-10-17T00:11:57.080Z,23.00
2022-10-17T00:14:23.446Z,23.04
2022-10-17T00:16:49.799Z,22.99
2022-10-17T00:19:16.152Z,23.00
2022-10-17T00:21:42.526Z,22.97
2022-10-17T00:24:08.896Z,23.02
2022-10-17T00:26:35.260Z,22.99
2022-10-17T00:29:01.665Z,23.04
2022-10-17T00:31:28.108Z,23.07
2022-10-17T00:33:54.486Z,23.02
2022-10-17T00:36:20.849Z,23.07
2022-10-17T00:38:47.215Z,23.04
2022-10-17T00:41:13.578Z,23.06
2022-10-17T00:43:39.957Z,23.08
2022-10-17T00:46:06.323Z,23.08
2022-10-17T00:48:32.698Z,23.04
2022-10-17T00:50:59.060Z,23.03
2022-10-17T00:53:25.508Z,23.07
2022-10-17T00:55:51.874Z,23.03
2022-10-17T00:58:18.228Z,23.05
2022-10-17T01:00:44.593Z,22.99
2022-10-17T01:03:10.958Z,23.04
2022-10-17T01:05:37.307Z,23.07
2022-10-17T01:08:03.752Z,23.03
2022-10-17T01:10:30.113Z,23.09
2022-10-17T01:12:56.491Z,22.99
2022-10-17T01:15:22.857Z,22.98
2022-10-17T01:17:49.232Z,22.97
2022-10-17T01:20:15.595Z,22.92
2022-10-17T01:22:41.952Z,22.92
2022-10-17T01:25:08.303Z,22.95
2022-10-17T01:27:34.673Z,22.92
2022-10-17T01:30:01.043Z,22.94
2022-10-17T01:32:27.586Z,22.96
2022-10-17T01:34:54.084Z,22.94
2022-10-17T01:37:20.461Z,22.95
2022-10-17T01:39:47.737Z,22.95
2022-10-17T01:42:14.298Z,22.96
2022-10-17T01:44:40.655Z,22.97
2022-10-17T01:47:07.109Z,22.99
2022-10-17T01:49:33.474Z,22.92
2022-10-17T01:51:59.834Z,22.90
2022-10-17T01:54:26.194Z,23.02
2022-10-17T01:56:52.561Z,22.94
2022-10-17T01:59:18.928Z,23.03
2022-10-17T02:01:45.372Z,23.01
2022-10-17T02:04:11.779Z,22.95
2022-10-17T02:06:38.161Z,22.96
2022-10-17T02:09:04.526Z,22.99
2022-10-17T02:11:30.877Z,22.95
2022-10-17T02:13:57.238Z,23.02
2022-10-17T02:16:23.614Z,23.02
2022-10-17T02:18:49.968Z,23.07
2022-10-17T02:21:16.321Z,23.01
2022-10-17T02:23:42.693Z,22.99
2022-10-17T02:26:09.058Z,22.92
2022-10-17T02:28:35.502Z,22.95
2022-10-17T02:31:01.912Z,22.92
2022-10-17T02:33:28.266Z,22.92
2022-10-17T02:35:54.632Z,22.92
2022-10-17T02:38:20.999Z,22.89
2022-10-17T02:40:47.371Z,22.95
2022-10-17T02:43:13.741Z,22.92
2022-10-17T02:45:40.106Z,22.93
2022-10-17T02:48:06.463Z,22.89
2022-10-17T02:50:32.836Z,22.92
2022-10-17T02:52:59.224Z,22.93
2022-10-17T02:55:25.602Z,22.89
2022-10-17T02:57:51.960Z,22.91
2022-10-17T03:00:18.326Z,22.92
2022-10-17T03:02:44.684Z,22.92
2022-10-17T03:05:11.051Z,22.89
2022-10-17T03:07:37.435Z,22.90
2022-10-17T03:10:03.789Z,22.88
2022-10-17T03:12:30.431Z,22.88
2022-10-17T03:14:56.943Z,22.92
2022-10-17T03:17:23.315Z,22.90
2022-10-17T03:19:49.677Z,22.95
2022-10-17T03:22:16.037Z,22.90
2022-10-17T03:24:42.391Z,22.90
2022-10-17T03:27:08.752Z,22.88
2022-10-17T03:29:35.114Z,22.88
2022-10-17T03:32:01.463Z,22.89
2022-10-17T03:34:27.827Z,22.87
2022-10-17T03:36:54.184Z,22.89
2022-10-17T03:39:20.553Z,22.88
2022-10-17T03:41:46.912Z,22.87
2022-10-17T03:44:13.275Z,22.85
2022-10-17T03:46:39.654Z,22.89
2022-10-17T03:49:06.034Z,22.89
2022-10-17T03:51:32.395Z,22.83
2022-10-17T03:53:58.755Z,22.84
2022-10-17T03:56:25.125Z,22.86
2022-10-17T03:58:51.485Z,22.87
2022-10-17T04:01:17.941Z,22.83
2022-10-17T04:03:44.403Z,22.84
2022-10-17T04:06:10.774Z,22.82
2022-10-17T04:08:37.137Z,22.79
2022-10-17T04:11:03.505Z,22.83
2022-10-17T04:13:29.882Z,22.87
2022-10-17T04:15:56.248Z,22.90
2022-10-17T04:18:22.596Z,22.84
2022-10-17T04:20:48.962Z,22.84
2022-10-17T04:23:15.315Z,22.89
2022-10-17T04:25:41.690Z,22.87
2022-10-17T04:28:08.050Z,22.84
2022-10-17T04:30:34.437Z,22.84
2022-10-17T04:33:00.788Z,22.82
2022-10-17T04:35:27.145Z,22.86
2022-10-17T04:37:53.519Z,22.84
2022-10-17T04:40:19.894Z,22.85
2022-10-17T04:42:46.256Z,22.87
2022-10-17T04:45:12.627Z,22.83
2022-10-17T04:47:38.993Z,22.82
2022-10-17T04:50:05.359Z,22.84
2022-10-17T04:52:31.942Z,22.79
2022-10-17T04:54:58.568Z,22.90
2022-10-17T04:57:24.938Z,22.93
2022-10-17T04:59:51.304Z,23.04
2022-10-17T05:02:17.660Z,22.83
2022-10-17T05:04:44.029Z,22.85
2022-10-17T05:07:10.397Z,22.94
2022-10-17T05:09:36.755Z,22.84
2022-10-17T05:12:04.419Z,22.77
2022-10-17T05:14:33.093Z,22.93
2022-10-17T05:16:59.467Z,22.79
2022-10-17T05:19:25.844Z,22.82
2022-10-17T05:21:52.208Z,23.05
2022-10-17T05:24:18.573Z,23.03
2022-10-17T05:26:44.939Z,22.99
2022-10-17T05:29:11.396Z,22.88
2022-10-17T05:31:37.760Z,22.97
2022-10-17T05:34:04.116Z,22.92
2022-10-17T05:36:30.487Z,22.86
2022-10-17T05:38:56.858Z,22.96
2022-10-17T05:41:23.234Z,22.94
2022-10-17T05:43:49.597Z,22.98
2022-10-17T05:46:15.962Z,23.02
2022-10-17T05:48:42.342Z,22.97
2022-10-17T05:51:08.707Z,23.01
2022-10-17T05:53:35.073Z,22.98
2022-10-17T05:56:01.500Z,22.98
2022-10-17T06:01:14.541Z,23.05
2022-10-17T06:03:40.951Z,23.03
2022-10-17T06:06:07.330Z,23.02
2022-10-17T06:08:33.696Z,22.99
2022-10-17T06:11:00.057Z,22.90
2022-10-17T06:13:26.442Z,22.98
2022-10-17T06:15:52.814Z,22.93
2022-10-17T06:18:19.181Z,22.96
2022-10-17T06:20:46.226Z,22.79
2022-10-17T06:23:12.646Z,22.72
2022-10-17T06:25:39.006Z,22.83
2022-10-17T06:28:05.378Z,22.95
2022-10-17T06:30:31.747Z,22.86
2022-10-17T06:32:58.123Z,22.95
2022-10-17T06:35:24.495Z,22.82
2022-10-17T06:37:50.874Z,22.91
2022-10-17T06:40:17.246Z,22.98
2022-10-17T06:42:43.643Z,23.00
2022-10-17T06:45:10.012Z,23.00
2022-10-17T06:47:36.394Z,22.96
2022-10-17T06:50:02.754Z,22.96
2022-10-17T06:52:29.114Z,23.00
2022-10-17T06:54:55.548Z,22.93
2022-10-17T06:57:21.969Z,23.01
2022-10-17T06:59:48.327Z,22.98
2022-10-17T07:02:14.691Z,22.95
2022-10-17T07:04:41.063Z,22.95
2022-10-17T07:07:07.413Z,22.92
2022-10-17T07:09:33.778Z,22.97
2022-10-17T07:12:00.151Z,22.96
2022-10-17T07:14:26.518Z,23.00
2022-10-17T07:16:52.889Z,22.98
2022-10-17T07:19:19.243Z,23.04
2022-10-17T07:21:45.610Z,22.90
2022-10-17T07:24:11.983Z,22.92
2022-10-17T07:26:38.351Z,22.89
2022-10-17T07:29:04.777Z,22.84
2022-10-17T07:31:31.180Z,22.88
2022-10-17T07:33:57.533Z,22.92
2022-10-17T07:36:23.902Z,22.93
2022-10-17T07:38:50.271Z,22.96
2022-10-17T07:41:19.397Z,22.91
2022-10-17T07:43:48.051Z,22.76
2022-10-17T07:46:14.404Z,22.79
2022-10-17T07:48:40.775Z,22.77
2022-10-17T07:51:07.160Z,22.89
2022-10-17T07:53:33.523Z,22.88
2022-10-17T07:55:59.891Z,22.91
2022-10-17T07:58:26.261Z,22.96
2022-10-17T08:00:52.676Z,23.02
2022-10-17T08:03:19.114Z,22.97
2022-10-17T08:05:45.477Z,22.96
2022-10-17T08:08:11.852Z,22.97
2022-10-17T08:10:38.217Z,23.03
2022-10-17T08:13:04.586Z,23.03
2022-10-17T08:15:32.041Z,23.01
2022-10-17T08:17:58.659Z,23.02
2022-10-17T08:20:25.030Z,23.00
2022-10-17T08:22:51.404Z,22.98
2022-10-17T08:25:17.784Z,23.00
2022-10-17T08:27:44.167Z,22.97
2022-10-17T08:30:10.528Z,22.97
2022-10-17T08:32:36.888Z,22.92
2022-10-17T08:35:03.252Z,23.00
2022-10-17T08:37:29.889Z,23.00
2022-10-17T08:39:56.455Z,23.03
2022-10-17T08:42:22.809Z,22.99
2022-10-17T08:44:49.172Z,22.96
2022-10-17T08:47:15.529Z,22.98
2022-10-17T08:49:41.893Z,22.98
2022-10-17T08:52:08.273Z,23.01
2022-10-17T08:54:34.648Z,23.04
2022-10-17T08:57:01.119Z,22.96
2022-10-17T08:59:27.603Z,23.00
2022-10-17T09:01:53.960Z,22.98
2022-10-17T09:04:20.359Z,23.01
2022-10-17T09:06:46.762Z,22.98
2022-10-17T09:09:13.122Z,22.94
2022-10-17T09:11:39.509Z,22.99
2022-10-17T09:14:05.866Z,22.93
2022-10-17T09:16:32.280Z,22.91
2022-10-17T09:18:58.647Z,22.93
2022-10-17T09:21:25.013Z,22.94
2022-10-17T09:23:56.095Z,23.02
2022-10-17T09:26:30.309Z,22.90
2022-10-17T09:28:56.749Z,22.94
2022-10-17T09:31:23.159Z,23.00
2022-10-17T09:33:54.161Z,22.98
2022-10-17T09:36:21.359Z,23.04
2022-10-17T09:38:47.722Z,23.02
2022-10-17T09:41:39.330Z,23.04
2022-10-17T09:44:00.429Z,22.96
2022-10-17T09:46:26.812Z,23.01
2022-10-17T09:48:53.536Z,22.95
2022-10-17T09:51:25.768Z,23.03
2022-10-17T09:53:52.914Z,23.03
2022-10-17T09:56:19.333Z,22.98
2022-10-17T09:58:45.717Z,22.99
2022-10-17T10:01:12.119Z,22.94
2022-10-17T10:03:38.527Z,23.19
2022-10-17T10:06:05.077Z,23.05
2022-10-17T10:08:31.436Z,22.95
2022-10-17T10:10:57.790Z,23.02
2022-10-17T10:13:24.160Z,22.99
2022-10-17T10:15:50.512Z,23.00
2022-10-17T10:18:16.912Z,23.01
2022-10-17T10:20:43.340Z,23.01
2022-10-17T10:23:09.714Z,22.91
2022-10-17T10:25:36.228Z,22.89
2022-10-17T10:28:02.639Z,23.04
2022-10-17T10:30:29.042Z,23.07
2022-10-17T10:32:55.422Z,22.98
2022-10-17T10:35:21.796Z,23.01
2022-10-17T10:37:48.153Z,23.00
2022-10-17T10:40:14.516Z,23.00
2022-10-17T10:42:40.870Z,22.98
2022-10-17T10:45:09.314Z,23.07
2022-10-17T10:47:38.337Z,23.08
2022-10-17T10:50:05.166Z,23.07
2022-10-17T10:52:31.536Z,23.05
2022-10-17T10:54:57.891Z,23.08
2022-10-17T10:57:24.274Z,23.06
2022-10-17T10:59:50.644Z,23.10
2022-10-17T11:02:17.010Z,23.05
2022-10-17T11:04:43.377Z,23.09
2022-10-17T11:07:09.750Z,23.08
2022-10-17T11:09:36.113Z,23.08
2022-10-17T11:12:02.477Z,23.00
2022-10-17T11:14:28.862Z,23.03
2022-10-17T11:16:55.237Z,23.09
2022-10-17T11:19:21.603Z,23.04
2022-10-17T11:21:47.969Z,23.05
2022-10-17T11:24:14.447Z,23.03
2022-10-17T11:26:41.087Z,22.99
2022-10-17T11:29:07.607Z,23.03
2022-10-17T11:31:34.014Z,23.04
2022-10-17T11:34:00.376Z,23.06
2022-10-17T11:36:26.747Z,23.00
2022-10-17T11:38:53.114Z,23.03
2022-10-17T11:41:19.483Z,23.02
2022-10-17T11:43:45.836Z,23.04
2022-10-17T11:46:12.204Z,23.02
2022-10-17T11:48:38.589Z,23.08
2022-10-17T11:53:51.496Z,22.98
2022-10-17T11:56:17.897Z,23.04
2022-10-17T11:58:44.289Z,23.10
2022-10-17T12:01:10.655Z,23.08
2022-10-17T12:03:37.007Z,23.06
2022-10-17T12:06:03.389Z,23.08
2022-10-17T12:08:31.251Z,23.02
2022-10-17T12:10:57.852Z,22.99
2022-10-17T12:13:24.204Z,23.06
2022-10-17T12:15:50.556Z,23.06
2022-10-17T12:18:16.931Z,23.07
2022-10-17T12:20:43.289Z,23.10
2022-10-17T12:23:09.655Z,23.11
2022-10-17T12:25:36.056Z,23.11
2022-10-17T12:28:02.446Z,23.10
2022-10-17T12:30:28.816Z,23.10
2022-10-17T12:33:05.614Z,23.14
2022-10-17T12:35:32.821Z,23.12
2022-10-17T12:37:59.465Z,23.11
2022-10-17T12:40:25.869Z,23.09
2022-10-17T12:42:52.235Z,23.10
2022-10-17T12:45:18.606Z,23.06
2022-10-17T12:47:44.988Z,23.12
2022-10-17T12:50:11.744Z,23.12
2022-10-17T12:52:38.104Z,23.15
2022-10-17T12:55:12.073Z,23.14
2022-10-17T12:57:39.317Z,23.14
2022-10-17T13:00:05.683Z,23.09
2022-10-17T13:02:32.036Z,23.16
2022-10-17T13:04:58.403Z,23.07
2022-10-17T13:07:24.758Z,23.02
2022-10-17T13:09:51.116Z,23.03
2022-10-17T13:12:17.494Z,23.06
2022-10-17T13:14:43.871Z,23.04
2022-10-17T13:17:10.235Z,23.01
2022-10-17T13:22:22.898Z,23.03
2022-10-17T13:24:49.251Z,23.06
2022-10-17T13:27:15.682Z,23.00
2022-10-17T13:29:42.080Z,23.05
2022-10-17T13:32:08.444Z,22.94
2022-10-17T13:34:34.812Z,23.02
2022-10-17T13:37:01.172Z,23.06
2022-10-17T13:39:44.820Z,23.07
2022-10-17T13:42:13.873Z,23.11
2022-10-17T13:44:43.337Z,23.10
2022-10-17T13:47:10.058Z,23.12
2022-10-17T13:49:36.440Z,23.04
2022-10-17T13:52:02.791Z,23.15
2022-10-17T13:54:29.166Z,23.16
2022-10-17T13:59:41.815Z,23.05
2022-10-17T14:02:08.169Z,23.10
2022-10-17T14:04:56.625Z,23.13
2022-10-17T14:07:20.892Z,23.14
2022-10-17T14:09:47.269Z,23.10
2022-10-17T14:12:13.786Z,23.13
2022-10-17T14:15:05.279Z,23.12
2022-10-17T14:17:26.660Z,23.06
2022-10-17T14:20:05.803Z,23.14
2022-10-17T14:22:39.649Z,23.16
2022-10-17T14:25:06.005Z,23.20
2022-10-17T14:27:32.835Z,23.13
2022-10-17T14:29:59.543Z,23.21
2022-10-17T14:32:25.951Z,23.18
2022-10-17T14:34:52.333Z,23.22
2022-10-17T14:37:18.722Z,23.14
2022-10-17T14:39:45.184Z,23.16
2022-10-17T14:42:11.537Z,23.17
2022-10-17T14:44:37.898Z,23.17
2022-10-17T14:47:30.376Z,23.21
2022-10-17T14:49:50.616Z,23.16
2022-10-17T14:52:18.841Z,23.06
2022-10-17T14:54:45.448Z,23.09
2022-10-17T14:57:11.912Z,23.17
2022-10-17T14:59:53.434Z,23.20
2022-10-17T15:02:20.854Z,23.19
2022-10-17T15:04:47.214Z,23.20
2022-10-17T15:07:13.585Z,23.03
2022-10-17T15:09:39.958Z,23.06
2022-10-17T15:12:06.321Z,23.12
2022-10-17T15:14:32.688Z,23.05
2022-10-17T15:16:59.057Z,23.04
2022-10-17T15:19:25.431Z,23.09
2022-10-17T15:21:51.805Z,23.10
2022-10-17T15:24:18.174Z,23.09
2022-10-17T15:26:44.607Z,23.08
2022-10-17T15:29:11.034Z,23.07
2022-10-17T15:31:37.420Z,23.14
2022-10-17T15:34:03.797Z,23.09
2022-10-17T15:36:30.164Z,23.14
2022-10-17T15:38:56.536Z,23.15
2022-10-17T15:41:22.911Z,23.05
2022-10-17T15:43:49.279Z,23.08
2022-10-17T15:46:15.633Z,23.14
2022-10-17T15:48:41.994Z,23.04
2022-10-17T15:51:08.369Z,23.12
2022-10-17T15:53:34.773Z,23.17
2022-10-17T15:56:01.139Z,23.15
2022-10-17T15:58:27.514Z,23.16
2022-10-17T16:00:53.919Z,23.18
2022-10-17T16:06:09.554Z,23.12
2022-10-17T16:08:38.481Z,23.09
2022-10-17T16:11:04.863Z,23.17
2022-10-17T16:13:31.227Z,23.18
2022-10-17T16:15:57.594Z,23.18
2022-10-17T16:18:23.970Z,23.12
2022-10-17T16:20:50.335Z,23.13
2022-10-17T16:23:16.701Z,23.15
2022-10-17T16:25:43.069Z,23.18
2022-10-17T16:28:09.424Z,23.17
2022-10-17T16:30:35.789Z,23.23
2022-10-17T16:33:02.154Z,23.18
2022-10-17T16:35:31.877Z,23.20
2022-10-17T16:38:01.412Z,23.13
2022-10-17T16:40:27.790Z,22.94
2022-10-17T16:42:54.151Z,23.14
2022-10-17T16:45:20.534Z,23.07
2022-10-17T16:47:46.937Z,23.22
2022-10-17T16:50:13.292Z,23.21
2022-10-17T16:52:39.712Z,23.18
2022-10-17T16:55:06.116Z,23.19
2022-10-17T16:57:32.521Z,23.14
2022-10-17T16:59:58.920Z,23.15
2022-10-17T17:02:25.279Z,23.14
2022-10-17T17:04:51.659Z,23.01
2022-10-17T17:07:18.034Z,22.97
2022-10-17T17:09:44.408Z,22.96
2022-10-17T17:12:10.795Z,22.86
2022-10-17T17:14:37.166Z,22.81
2022-10-17T17:17:03.575Z,22.81
2022-10-17T17:19:29.946Z,22.80
2022-10-17T17:21:56.305Z,22.83
2022-10-17T17:24:22.683Z,22.84
2022-10-17T17:26:49.036Z,22.83
2022-10-17T17:29:15.414Z,22.82
2022-10-17T17:31:41.780Z,22.77
2022-10-17T17:34:08.142Z,22.84
2022-10-17T17:36:34.720Z,22.97
2022-10-17T17:39:01.092Z,22.93
2022-10-17T17:41:27.454Z,22.95
2022-10-17T17:43:53.834Z,22.98
2022-10-17T17:46:20.192Z,22.95
2022-10-17T17:48:46.559Z,23.02
2022-10-17T17:51:12.921Z,23.01
2022-10-17T17:53:39.280Z,22.98
2022-10-17T17:56:05.648Z,23.17
2022-10-17T17:58:32.005Z,23.17
2022-10-17T18:00:58.507Z,23.29
2022-10-17T18:03:24.896Z,23.33
2022-10-17T18:05:51.256Z,23.32
2022-10-17T18:08:17.629Z,23.30
2022-10-17T18:10:43.983Z,23.21
2022-10-17T18:13:10.353Z,23.20
2022-10-17T18:15:36.708Z,23.29
2022-10-17T18:18:03.067Z,23.32
2022-10-17T18:20:29.433Z,23.18
2022-10-17T18:22:59.296Z,23.25
2022-10-17T18:25:28.334Z,23.16
2022-10-17T18:27:54.694Z,23.31
2022-10-17T18:30:22.548Z,23.27
2022-10-17T18:32:52.243Z,23.33
2022-10-17T18:35:18.615Z,23.37
2022-10-17T18:37:44.987Z,23.41
2022-10-17T18:40:11.368Z,23.24
2022-10-17T18:42:37.733Z,23.32
2022-10-17T18:45:04.129Z,23.27
2022-10-17T18:47:30.635Z,23.31
2022-10-17T18:49:57.135Z,23.19
2022-10-17T18:52:23.510Z,23.32
2022-10-17T18:54:49.871Z,23.31
2022-10-17T18:57:16.242Z,23.34
2022-10-17T18:59:42.601Z,23.24
2022-10-17T19:02:08.973Z,23.12
2022-10-17T19:04:35.339Z,23.06
2022-10-17T19:07:01.721Z,23.05
2022-10-17T19:09:28.090Z,23.18
2022-10-17T19:11:54.454Z,23.20
2022-10-17T19:14:20.836Z,23.08
2022-10-17T19:16:47.233Z,23.07
2022-10-17T19:19:13.593Z,23.24
2022-10-17T19:21:39.952Z,23.27
2022-10-17T19:24:06.318Z,23.18
2022-10-17T19:26:32.687Z,23.13
2022-10-17T19:28:59.142Z,23.22
2022-10-17T19:31:27.123Z,23.34
2022-10-17T19:33:53.800Z,23.29
2022-10-17T19:36:20.176Z,23.18
2022-10-17T19:38:46.539Z,23.14
2022-10-17T19:41:12.897Z,23.09
2022-10-17T19:43:39.272Z,23.08
2022-10-17T19:46:05.633Z,23.14
2022-10-17T19:48:32.003Z,23.25
2022-10-17T19:50:58.373Z,23.14
2022-10-17T19:53:24.742Z,23.20
2022-10-17T19:55:51.100Z,23.30
2022-10-17T19:58:17.461Z,23.38
2022-10-17T20:00:43.834Z,23.20
2022-10-17T20:03:10.201Z,23.21
2022-10-17T20:05:36.565Z,23.33
2022-10-17T20:08:02.934Z,23.36
2022-10-17T20:10:29.307Z,23.21
2022-10-17T20:12:55.666Z,23.25
2022-10-17T20:15:22.041Z,23.28
2022-10-17T20:17:48.414Z,23.40
2022-10-17T20:20:14.772Z,23.37
2022-10-17T20:22:41.137Z,23.30
2022-10-17T20:25:07.492Z,23.37
2022-10-17T20:27:33.853Z,23.35
2022-10-17T20:30:00.214Z,23.34
2022-10-17T20:32:26.582Z,23.31
2022-10-17T20:34:52.950Z,23.39
2022-10-17T20:37:19.323Z,23.45
2022-10-17T20:39:45.698Z,23.45
2022-10-17T20:42:12.073Z,23.36
2022-10-17T20:44:38.475Z,23.50
2022-10-17T20:47:11.715Z,23.44
2022-10-17T20:49:42.436Z,23.47
2022-10-17T20:52:11.555Z,23.48
2022-10-17T20:54:37.917Z,23.53
2022-10-17T20:57:05.001Z,23.37
2022-10-17T20:59:31.564Z,23.46
2022-10-17T21:01:57.975Z,23.37
2022-10-17T21:07:10.824Z,23.46
2022-10-17T21:09:37.180Z,23.39
2022-10-17T21:12:03.565Z,23.41
2022-10-17T21:14:29.986Z,23.37
2022-10-17T21:16:58.047Z,23.35
2022-10-17T21:19:26.277Z,23.38
2022-10-17T21:21:52.649Z,23.32
2022-10-17T21:24:19.008Z,23.34
2022-10-17T21:26:45.391Z,23.31
2022-10-17T21:29:11.764Z,23.36
2022-10-17T21:31:38.136Z,23.35
2022-10-17T21:34:04.506Z,23.36
2022-10-17T21:36:30.916Z,23.32
2022-10-17T21:38:57.337Z,23.44
2022-10-17T21:41:23.771Z,23.34
2022-10-17T21:43:50.133Z,23.42
2022-10-17T21:46:16.572Z,23.42
2022-10-17T21:48:42.994Z,23.36
2022-10-17T21:51:09.366Z,23.37
2022-10-17T21:53:35.738Z,23.39
2022-10-17T21:56:02.096Z,23.37
2022-10-17T21:58:28.473Z,23.36
2022-10-17T22:00:54.833Z,23.22
2022-10-17T22:03:21.191Z,23.22
2022-10-17T22:05:47.544Z,23.17
2022-10-17T22:08:13.905Z,23.33
2022-10-17T22:10:40.281Z,23.29
2022-10-17T22:13:06.688Z,23.26
2022-10-17T22:15:33.057Z,23.22
2022-10-17T22:17:59.421Z,23.20
2022-10-17T22:20:25.791Z,23.31
2022-10-17T22:22:52.152Z,23.17
2022-10-17T22:25:18.530Z,23.14
2022-10-17T22:27:44.891Z,23.19
2022-10-17T22:30:11.249Z,23.15
2022-10-17T22:32:37.607Z,23.10
2022-10-17T22:35:03.971Z,23.17
2022-10-17T22:37:30.796Z,23.18
2022-10-17T22:39:57.300Z,23.18
2022-10-17T22:42:23.666Z,23.07
2022-10-17T22:44:50.034Z,23.14
2022-10-17T22:47:16.414Z,23.21
2022-10-17T22:49:42.782Z,23.20
2022-10-17T22:52:09.147Z,23.30
2022-10-17T22:54:35.511Z,23.12
2022-10-17T22:57:01.879Z,23.13
2022-10-17T22:59:28.244Z,23.14
2022-10-17T23:01:54.660Z,23.12
2022-10-17T23:04:21.053Z,23.24
2022-10-17T23:06:47.413Z,23.20
2022-10-17T23:09:13.846Z,23.25
2022-10-17T23:11:40.270Z,23.25
2022-10-17T23:14:06.650Z,23.23
2022-10-17T23:16:33.011Z,23.18
2022-10-17T23:18:59.362Z,23.21
2022-10-17T23:21:25.731Z,23.17
2022-10-17T23:23:52.087Z,23.17
2022-10-17T23:26:18.467Z,23.12
2022-10-17T23:28:44.908Z,23.23
2022-10-17T23:31:11.330Z,23.25
2022-10-17T23:33:37.701Z,23.08
2022-10-17T23:36:04.079Z,23.19
2022-10-17T23:38:30.440Z,23.16
2022-10-17T23:40:56.800Z,23.19
2022-10-17T23:43:23.152Z,23.20
2022-10-17T23:45:49.517Z,23.29
2022-10-17T23:48:15.876Z,23.22
2022-10-17T23:50:42.232Z,23.29
2022-10-17T23:53:08.592Z,23.25
2022-10-17T23:55:34.968Z,23.24
2022-10-17T23:58:01.333Z,23.15
